KCIR

Cairo Regional Airport

Cairo, Illinois, USA
METAR KCIR 250515Z AUTO 00000KT 10SM CLR 22/20 A3004 RMK AO2 T02190198
Observed Flight Rules
May-25 @ 05:15 UTC (12 minutes ago) Visual Flight Rules
Visibility Clouds
10 miles
  • Clear skies
Temperatures Readings
Current 22°C / 72°F
Dewpoint 20°C / 68°F
Humidity 88%
Altimeter 30.04" Hg
Pressure 1017 hPa
Elevation 98
METAR KCIR 250515Z AUTO 00000KT 10SM CLR 22/20 A3004 RMK AO2 T02190198
Observed Flight Rules
May-25 @ 05:15 UTC
(12 minutes ago)
VFR
Clouds
  • Clear skies
Temperature Dewpoint
22°C / 72°F 20°C / 68°F
Humidity Altimeter Pressure
88% 30.04" Hg 1017 hPa